createdAt,value
2019-02-07T00:00:39.943Z,37.20
2019-02-07T00:03:08.957Z,34.83
2019-02-07T00:05:38.003Z,34.48
2019-02-07T00:08:07.028Z,35.45
2019-02-07T00:10:36.544Z,35.25
2019-02-07T00:13:05.577Z,33.88
2019-02-07T00:15:36.545Z,36.53
2019-02-07T00:18:05.449Z,33.15
2019-02-07T00:20:34.530Z,34.53
2019-02-07T00:23:03.643Z,37.78
2019-02-07T00:25:33.036Z,34.40
2019-02-07T00:28:02.089Z,33.05
2019-02-07T00:30:31.097Z,35.98
2019-02-07T00:33:00.141Z,34.45
2019-02-07T00:35:29.162Z,36.77
2019-02-07T00:37:58.214Z,36.30
2019-02-07T00:40:27.419Z,35.75
2019-02-07T00:42:56.520Z,33.75
2019-02-07T00:45:25.544Z,35.13
2019-02-07T00:47:54.616Z,32.17
2019-02-07T00:50:23.663Z,35.70
2019-02-07T00:52:52.723Z,31.55
2019-02-07T00:55:22.206Z,35.05
2019-02-07T00:57:51.234Z,33.98
2019-02-07T01:00:22.394Z,33.48
2019-02-07T01:02:51.491Z,32.05
2019-02-07T01:05:21.355Z,35.37
2019-02-07T01:07:50.415Z,37.60
2019-02-07T01:10:21.852Z,33.43
2019-02-07T01:12:50.856Z,33.70
2019-02-07T01:15:19.939Z,35.40
2019-02-07T01:17:49.006Z,32.75
2019-02-07T01:20:18.037Z,33.83
2019-02-07T01:22:47.042Z,34.10
2019-02-07T01:25:18.603Z,33.80
2019-02-07T01:27:47.805Z,33.58
2019-02-07T01:30:19.115Z,33.20
2019-02-07T01:32:50.349Z,32.90
2019-02-07T01:35:19.388Z,31.33
2019-02-07T01:37:48.425Z,32.05
2019-02-07T01:40:18.208Z,31.83
2019-02-07T01:42:47.344Z,30.88
2019-02-07T01:45:18.709Z,32.37
2019-02-07T01:47:47.722Z,30.92
2019-02-07T01:50:18.058Z,31.53
2019-02-07T01:52:47.407Z,32.50
2019-02-07T01:55:16.453Z,31.43
2019-02-07T01:57:45.479Z,32.38
2019-02-07T02:00:16.288Z,32.30
2019-02-07T02:02:45.351Z,31.25
2019-02-07T02:05:15.370Z,33.77
2019-02-07T02:07:44.693Z,31.12
2019-02-07T02:10:25.343Z,30.93
2019-02-07T02:12:54.364Z,29.40
2019-02-07T02:15:25.076Z,30.97
2019-02-07T02:17:54.495Z,33.13
2019-02-07T02:20:25.628Z,32.93
2019-02-07T02:22:55.251Z,31.95
2019-02-07T02:25:24.366Z,32.73
2019-02-07T02:27:53.389Z,30.60
2019-02-07T02:30:30.487Z,32.80
2019-02-07T02:32:59.792Z,28.80
2019-02-07T02:35:28.819Z,28.90
2019-02-07T02:37:57.841Z,29.82
2019-02-07T02:40:26.881Z,31.15
2019-02-07T02:42:55.973Z,29.15
2019-02-07T02:45:36.596Z,30.97
2019-02-07T02:47:55.838Z,31.00
2019-02-07T02:50:24.989Z,31.60
2019-02-07T02:52:54.029Z,31.07
2019-02-07T02:55:34.518Z,28.07
2019-02-07T02:58:03.555Z,29.55
2019-02-07T03:01:03.881Z,28.73
2019-02-07T03:03:40.524Z,29.90
2019-02-07T03:06:27.120Z,32.35
2019-02-07T03:09:14.000Z,29.10
2019-02-07T03:12:01.970Z,28.62
2019-02-07T03:14:48.575Z,28.67
2019-02-07T03:17:45.651Z,28.60
2019-02-07T03:20:32.345Z,31.30
2019-02-07T03:23:20.520Z,27.52
2019-02-07T03:26:14.549Z,29.60
2019-02-07T03:29:13.699Z,29.45
2019-02-07T03:32:00.490Z,28.75
2019-02-07T03:34:57.421Z,28.50
2019-02-07T03:37:41.872Z,28.77
2019-02-07T03:40:45.286Z,30.08
2019-02-07T03:43:32.034Z,28.20
2019-02-07T03:46:20.010Z,28.45
2019-02-07T03:48:59.198Z,30.65
2019-02-07T03:52:05.649Z,32.25
2019-02-07T03:54:56.723Z,27.67
2019-02-07T03:57:50.583Z,31.17
2019-02-07T04:00:47.653Z,26.70
2019-02-07T04:03:44.894Z,30.52
2019-02-07T04:06:40.212Z,29.10
2019-02-07T04:09:27.197Z,27.48
2019-02-07T04:12:15.181Z,30.12
2019-02-07T04:15:01.689Z,28.35
2019-02-07T04:17:50.154Z,31.20
2019-02-07T04:20:53.250Z,28.35
2019-02-07T04:23:41.199Z,25.82
2019-02-07T04:26:29.186Z,28.60
2019-02-07T04:29:20.350Z,29.65
2019-02-07T04:32:23.702Z,27.62
2019-02-07T04:35:01.014Z,28.32
2019-02-07T04:37:52.044Z,27.95
2019-02-07T04:40:34.742Z,31.05
2019-02-07T04:43:25.781Z,30.50
2019-02-07T04:46:26.625Z,29.77
2019-02-07T04:48:57.723Z,28.45
2019-02-07T04:51:48.467Z,27.90
2019-02-07T04:54:32.909Z,29.85
2019-02-07T04:57:20.856Z,25.82
2019-02-07T05:00:14.839Z,30.48
2019-02-07T05:03:21.083Z,28.95
2019-02-07T05:06:27.199Z,25.75
2019-02-07T05:09:13.050Z,27.05
2019-02-07T05:12:07.047Z,26.55
2019-02-07T05:14:50.158Z,27.15
2019-02-07T05:17:56.563Z,24.70
2019-02-07T05:20:48.428Z,25.13
2019-02-07T05:23:48.762Z,26.12
2019-02-07T05:26:49.110Z,25.35
2019-02-07T05:29:40.538Z,25.37
2019-02-07T05:32:36.328Z,24.40
2019-02-07T05:35:35.123Z,23.77
2019-02-07T05:38:20.424Z,24.37
2019-02-07T05:41:07.266Z,24.55
2019-02-07T05:44:10.987Z,25.08
2019-02-07T05:49:57.712Z,23.35
2019-02-07T05:52:57.890Z,23.00
2019-02-07T05:55:54.901Z,23.50
2019-02-07T05:58:52.224Z,23.75
2019-02-07T06:01:37.688Z,25.32
2019-02-07T06:04:37.191Z,24.60
2019-02-07T06:07:23.774Z,23.57
2019-02-07T06:10:27.019Z,22.42
2019-02-07T06:13:13.898Z,26.52
2019-02-07T06:16:10.995Z,22.95
2019-02-07T06:18:58.250Z,23.15
2019-02-07T06:21:48.105Z,23.73
2019-02-07T06:24:54.132Z,23.77
2019-02-07T06:27:43.486Z,26.40
2019-02-07T06:30:48.048Z,24.00
2019-02-07T06:33:36.307Z,21.82
2019-02-07T06:36:32.180Z,20.32
2019-02-07T06:39:28.493Z,21.52
2019-02-07T06:42:20.553Z,24.43
2019-02-07T06:45:06.132Z,26.10
2019-02-07T06:48:11.542Z,24.98
2019-02-07T06:50:58.259Z,24.40
2019-02-07T06:53:45.158Z,26.40
2019-02-07T06:56:32.706Z,27.35
2019-02-07T06:59:23.839Z,26.50
2019-02-07T07:02:11.828Z,27.17
2019-02-07T07:05:02.834Z,28.75
2019-02-07T07:08:02.840Z,29.57
2019-02-07T07:10:57.065Z,29.70
2019-02-07T07:13:48.398Z,31.02
2019-02-07T07:16:54.756Z,30.60
2019-02-07T07:19:48.973Z,30.57
2019-02-07T07:22:36.269Z,29.85
2019-02-07T07:25:24.740Z,27.32
2019-02-07T07:28:11.572Z,28.62
2019-02-07T07:30:58.406Z,28.00
2019-02-07T07:33:44.640Z,31.10
2019-02-07T07:36:44.875Z,28.55
2019-02-07T07:39:38.967Z,29.12
2019-02-07T07:42:38.820Z,28.02
2019-02-07T07:45:23.548Z,27.40
2019-02-07T07:48:23.794Z,83.85
2019-02-07T07:51:30.100Z,29.07
2019-02-07T07:54:10.380Z,29.20
2019-02-07T07:57:14.244Z,30.05
2019-02-07T08:00:07.979Z,28.67
2019-02-07T08:03:14.435Z,31.07
2019-02-07T08:05:56.240Z,29.07
2019-02-07T08:08:42.824Z,29.98
2019-02-07T08:11:29.756Z,31.23
2019-02-07T08:14:26.756Z,33.85
2019-02-07T08:17:05.843Z,31.05
2019-02-07T08:20:12.361Z,33.88
2019-02-07T08:23:09.448Z,32.75
2019-02-07T08:25:56.570Z,34.58
2019-02-07T08:28:56.996Z,35.83
2019-02-07T08:31:35.230Z,37.63
2019-02-07T08:34:21.981Z,33.95
2019-02-07T08:37:28.663Z,32.63
2019-02-07T08:40:31.947Z,33.88
2019-02-07T08:43:23.138Z,33.80
2019-02-07T08:46:10.279Z,38.80
2019-02-07T08:49:01.124Z,34.30
2019-02-07T08:52:02.203Z,42.13
2019-02-07T08:55:08.440Z,36.45
2019-02-07T08:57:55.962Z,42.78
2019-02-07T09:00:29.657Z,48.30
2019-02-07T09:03:17.719Z,42.03
2019-02-07T09:05:58.601Z,26.73
2019-02-07T09:08:45.359Z,26.97
2019-02-07T09:11:51.751Z,20.97
2019-02-07T09:14:43.207Z,19.23
2019-02-07T09:17:29.908Z,14.95
2019-02-07T09:20:18.008Z,15.13
2019-02-07T09:23:01.149Z,15.32
2019-02-07T09:25:58.202Z,13.65
2019-02-07T09:28:45.386Z,11.83
2019-02-07T09:31:39.443Z,14.38
2019-02-07T09:34:17.621Z,17.67
2019-02-07T09:37:15.362Z,12.07
2019-02-07T09:40:04.160Z,17.87
2019-02-07T09:43:10.306Z,19.30
2019-02-07T09:45:57.337Z,17.73
2019-02-07T09:48:44.249Z,21.80
2019-02-07T09:51:44.269Z,20.45
2019-02-07T09:54:44.579Z,19.40
2019-02-07T09:57:38.627Z,20.75
2019-02-07T10:00:27.530Z,26.25
2019-02-07T10:03:15.846Z,24.82
2019-02-07T10:06:06.855Z,22.70
2019-02-07T10:09:03.797Z,23.50
2019-02-07T10:12:03.852Z,25.43
2019-02-07T10:14:45.461Z,22.85
2019-02-07T10:17:32.131Z,29.83
2019-02-07T10:20:30.835Z,22.98
2019-02-07T10:23:18.381Z,23.07
2019-02-07T10:26:05.186Z,25.43
2019-02-07T10:29:05.176Z,30.92
2019-02-07T10:32:02.269Z,29.18
2019-02-07T10:34:50.275Z,22.87
2019-02-07T10:37:37.449Z,28.02
2019-02-07T10:40:34.877Z,24.98
2019-02-07T10:43:36.087Z,23.77
2019-02-07T10:46:24.765Z,27.58
2019-02-07T10:49:16.107Z,29.12
2019-02-07T10:52:10.183Z,24.75
2019-02-07T10:54:49.158Z,26.45
2019-02-07T10:57:36.002Z,22.25
2019-02-07T11:00:31.170Z,25.27
2019-02-07T11:03:13.615Z,22.17
2019-02-07T11:06:00.613Z,28.12
2019-02-07T11:08:37.536Z,32.13
2019-02-07T11:11:14.895Z,21.52
2019-02-07T11:14:10.168Z,22.10
2019-02-07T11:17:07.481Z,24.55
2019-02-07T11:19:54.299Z,22.87
2019-02-07T11:22:48.212Z,31.42
2019-02-07T11:25:42.059Z,23.17
2019-02-07T11:28:18.985Z,21.73
2019-02-07T11:31:13.074Z,26.45
2019-02-07T11:33:59.971Z,25.70
2019-02-07T11:37:03.402Z,21.93
2019-02-07T11:42:32.206Z,21.17
2019-02-07T11:45:32.868Z,24.55
2019-02-07T11:48:27.518Z,23.12
2019-02-07T11:51:21.771Z,22.58
2019-02-07T11:54:27.976Z,20.82
2019-02-07T11:57:15.990Z,25.30
2019-02-07T12:00:03.777Z,27.05
2019-02-07T12:02:51.820Z,23.22
2019-02-07T12:05:50.713Z,23.47
2019-02-07T12:08:47.933Z,20.72
2019-02-07T12:11:38.480Z,20.32
2019-02-07T12:14:31.185Z,27.20
2019-02-07T12:17:17.753Z,23.02
2019-02-07T12:20:08.539Z,22.90
2019-02-07T12:22:49.542Z,20.88
2019-02-07T12:25:40.381Z,23.23
2019-02-07T12:28:27.749Z,24.90
2019-02-07T12:31:18.745Z,22.52
2019-02-07T12:33:58.806Z,19.48
2019-02-07T12:36:38.441Z,23.27
2019-02-07T12:39:45.786Z,20.72
2019-02-07T12:42:30.566Z,16.20
2019-02-07T12:45:13.957Z,16.15
2019-02-07T12:48:08.242Z,20.37
2019-02-07T12:50:57.561Z,17.42
2019-02-07T12:53:39.273Z,19.20
2019-02-07T12:56:26.647Z,22.00
2019-02-07T12:59:13.305Z,16.15
2019-02-07T13:02:10.449Z,14.95
2019-02-07T13:05:01.271Z,13.70
2019-02-07T13:07:48.137Z,14.35
2019-02-07T13:10:42.862Z,18.55
2019-02-07T13:13:26.044Z,17.20
2019-02-07T13:16:09.921Z,22.52
2019-02-07T13:19:16.238Z,16.20
2019-02-07T13:22:01.584Z,14.75
2019-02-07T13:24:39.826Z,16.30
2019-02-07T13:27:26.626Z,15.35
2019-02-07T13:30:19.346Z,17.67
2019-02-07T13:33:05.756Z,17.37
2019-02-07T13:35:52.429Z,16.00
2019-02-07T13:38:40.424Z,13.75
2019-02-07T13:41:27.688Z,15.40
2019-02-07T13:44:15.677Z,15.40
2019-02-07T13:47:21.776Z,15.20
2019-02-07T13:50:08.243Z,13.25
2019-02-07T13:52:56.282Z,16.90
2019-02-07T13:55:53.678Z,17.27
2019-02-07T13:58:47.796Z,20.60
2019-02-07T14:01:38.583Z,12.03
2019-02-07T14:04:25.080Z,13.25
2019-02-07T14:07:15.860Z,13.93
2019-02-07T14:10:09.731Z,12.37
2019-02-07T14:12:57.333Z,14.65
2019-02-07T14:15:42.333Z,16.87
2019-02-07T14:21:52.574Z,18.92
2019-02-07T14:24:40.939Z,18.30
2019-02-07T14:27:20.766Z,12.15
2019-02-07T14:30:08.298Z,11.80
2019-02-07T14:32:56.307Z,12.45
2019-02-07T14:35:43.095Z,15.03
2019-02-07T14:38:25.868Z,13.30
2019-02-07T14:41:07.329Z,12.60
2019-02-07T14:44:01.386Z,15.08
2019-02-07T14:46:55.705Z,11.65
2019-02-07T14:49:24.862Z,15.00
2019-02-07T14:51:54.425Z,10.80
2019-02-07T14:54:23.508Z,11.53
2019-02-07T14:56:52.551Z,14.65
2019-02-07T14:59:21.684Z,11.68
2019-02-07T15:01:50.768Z,11.45
2019-02-07T15:04:19.900Z,11.93
2019-02-07T15:06:49.067Z,9.28
2019-02-07T15:09:20.417Z,9.28
2019-02-07T15:11:49.481Z,11.40
2019-02-07T15:14:18.554Z,14.73
2019-02-07T15:16:47.820Z,11.80
2019-02-07T15:19:16.933Z,12.75
2019-02-07T15:21:46.011Z,11.97
2019-02-07T15:24:15.180Z,12.45
2019-02-07T15:26:44.354Z,18.90
2019-02-07T15:29:15.993Z,14.58
2019-02-07T15:31:44.431Z,15.95
2019-02-07T15:34:13.475Z,14.95
2019-02-07T15:36:44.807Z,13.22
2019-02-07T15:39:15.985Z,12.98
2019-02-07T15:41:45.078Z,11.55
2019-02-07T15:44:14.183Z,13.40
2019-02-07T15:46:43.269Z,11.50
2019-02-07T15:49:12.352Z,15.98
2019-02-07T15:51:41.588Z,11.12
2019-02-07T15:54:10.634Z,14.28
2019-02-07T15:56:39.840Z,14.95
2019-02-07T15:59:17.543Z,14.53
2019-02-07T16:01:54.544Z,16.95
2019-02-07T16:04:33.491Z,17.50
2019-02-07T16:07:02.630Z,10.35
2019-02-07T16:09:31.774Z,19.70
2019-02-07T16:12:00.922Z,13.00
2019-02-07T16:14:30.046Z,12.10
2019-02-07T16:16:59.623Z,12.75
2019-02-07T16:19:28.730Z,8.25
2019-02-07T16:21:58.008Z,9.30
2019-02-07T16:24:27.081Z,10.65
2019-02-07T16:26:56.226Z,7.80
2019-02-07T16:29:25.291Z,12.80
2019-02-07T16:31:54.950Z,12.43
2019-02-07T16:34:24.064Z,14.38
2019-02-07T16:36:53.139Z,15.38
2019-02-07T16:39:22.202Z,18.50
2019-02-07T16:41:51.368Z,11.22
2019-02-07T16:44:20.529Z,11.68
2019-02-07T16:46:50.020Z,16.62
2019-02-07T16:49:19.194Z,10.70
2019-02-07T16:51:48.239Z,10.98
2019-02-07T16:54:17.345Z,12.58
2019-02-07T16:56:46.443Z,17.27
2019-02-07T16:59:15.569Z,15.78
2019-02-07T17:01:44.766Z,12.53
2019-02-07T17:04:13.886Z,12.37
2019-02-07T17:06:42.950Z,18.05
2019-02-07T17:09:33.856Z,12.73
2019-02-07T17:12:02.924Z,13.05
2019-02-07T17:14:32.227Z,11.75
2019-02-07T17:17:01.293Z,13.10
2019-02-07T17:19:30.393Z,11.78
2019-02-07T17:21:59.475Z,15.25
2019-02-07T17:24:28.576Z,17.98
2019-02-07T17:26:57.659Z,15.40
2019-02-07T17:29:26.782Z,13.78
2019-02-07T17:31:55.924Z,17.25
2019-02-07T17:34:25.070Z,17.82
2019-02-07T17:36:54.197Z,13.60
2019-02-07T17:39:23.454Z,16.32
2019-02-07T17:41:52.717Z,12.05
2019-02-07T17:44:22.184Z,16.85
2019-02-07T17:46:51.346Z,11.08
2019-02-07T17:49:20.634Z,15.00
2019-02-07T17:51:49.737Z,11.78
2019-02-07T17:54:19.299Z,10.90
2019-02-07T17:56:48.392Z,10.90
2019-02-07T17:59:17.827Z,9.68
2019-02-07T18:01:47.025Z,14.25
2019-02-07T18:04:16.250Z,14.63
2019-02-07T18:06:45.409Z,15.75
2019-02-07T18:09:14.540Z,14.73
2019-02-07T18:11:43.742Z,11.63
2019-02-07T18:14:12.876Z,13.38
2019-02-07T18:16:42.059Z,13.70
2019-02-07T18:19:11.186Z,13.90
2019-02-07T18:21:40.415Z,16.25
2019-02-07T18:24:09.494Z,10.00
2019-02-07T18:26:38.645Z,10.32
2019-02-07T18:29:07.735Z,9.70
2019-02-07T18:31:36.895Z,8.95
2019-02-07T18:34:06.087Z,12.78
2019-02-07T18:37:32.044Z,12.18
2019-02-07T18:40:31.492Z,10.58
2019-02-07T18:54:32.014Z,11.22
2019-02-07T18:57:01.158Z,12.97
2019-02-07T18:59:30.272Z,9.88
2019-02-07T19:01:59.591Z,9.88
2019-02-07T19:04:28.739Z,9.23
2019-02-07T19:06:57.883Z,8.20
2019-02-07T19:09:26.989Z,10.78
2019-02-07T19:11:56.117Z,9.43
2019-02-07T19:14:25.278Z,13.22
2019-02-07T19:18:16.858Z,11.60
2019-02-07T19:20:46.070Z,11.50
2019-02-07T19:27:27.879Z,8.28
2019-02-07T19:29:57.060Z,8.53
2019-02-07T19:32:26.318Z,8.63
2019-02-07T19:34:55.736Z,9.93
2019-02-07T19:37:24.813Z,9.20
2019-02-07T19:39:53.981Z,7.70
2019-02-07T19:42:23.075Z,9.68
2019-02-07T19:44:52.272Z,8.38
2019-02-07T19:47:21.528Z,8.93
2019-02-07T19:49:56.306Z,10.15
2019-02-07T19:52:25.457Z,7.85
2019-02-07T19:54:54.591Z,11.53
2019-02-07T19:57:23.699Z,9.88
2019-02-07T19:59:53.169Z,6.28
2019-02-07T20:02:22.304Z,9.53
2019-02-07T20:04:51.768Z,9.70
2019-02-07T20:07:21.324Z,6.85
2019-02-07T20:09:50.461Z,9.53
2019-02-07T20:12:19.592Z,8.08
2019-02-07T20:14:51.996Z,7.92
2019-02-07T20:17:21.194Z,8.80
2019-02-07T20:19:50.568Z,11.38
2019-02-07T20:22:20.582Z,12.18
2019-02-07T20:24:49.715Z,10.23
2019-02-07T20:27:18.897Z,8.08
2019-02-07T20:29:48.024Z,7.85
2019-02-07T20:32:17.144Z,9.05
2019-02-07T20:34:46.329Z,8.68
2019-02-07T20:37:15.991Z,9.70
2019-02-07T20:39:46.081Z,7.47
2019-02-07T20:42:15.267Z,7.50
2019-02-07T20:44:44.394Z,6.30
2019-02-07T20:47:13.546Z,11.85
2019-02-07T20:49:42.706Z,9.25
2019-02-07T20:52:11.845Z,41.60
2019-02-07T20:54:41.090Z,14.25
2019-02-07T20:57:10.234Z,8.73
2019-02-07T20:59:39.399Z,8.90
2019-02-07T21:02:08.499Z,7.95
2019-02-07T21:04:38.228Z,8.40
2019-02-07T21:07:07.836Z,8.90
2019-02-07T21:09:37.531Z,13.03
2019-02-07T21:12:06.766Z,13.75
2019-02-07T21:14:35.977Z,6.47
2019-02-07T21:17:05.058Z,7.37
2019-02-07T21:19:34.225Z,9.73
2019-02-07T21:22:03.342Z,8.98
2019-02-07T21:24:32.520Z,9.83
2019-02-07T21:27:01.995Z,8.45
2019-02-07T21:29:31.114Z,9.73
2019-02-07T21:32:00.279Z,8.63
2019-02-07T21:34:29.343Z,9.98
2019-02-07T21:37:01.550Z,8.20
2019-02-07T21:39:30.787Z,8.60
2019-02-07T21:42:00.009Z,11.15
2019-02-07T21:44:29.114Z,12.00
2019-02-07T21:46:58.326Z,9.03
2019-02-07T21:49:27.526Z,8.28
2019-02-07T21:51:56.707Z,12.35
2019-02-07T21:54:25.776Z,7.25
2019-02-07T21:56:55.025Z,8.45
2019-02-07T21:59:24.329Z,8.93
2019-02-07T22:01:53.488Z,10.08
2019-02-07T22:04:22.696Z,8.20
2019-02-07T22:06:51.824Z,8.13
2019-02-07T22:09:20.967Z,7.62
2019-02-07T22:11:50.076Z,10.00
2019-02-07T22:14:19.542Z,7.30
2019-02-07T22:16:48.601Z,7.35
2019-02-07T22:19:17.679Z,9.15
2019-02-07T22:21:46.837Z,9.03
2019-02-07T22:24:15.927Z,8.75
2019-02-07T22:26:45.023Z,10.15
2019-02-07T22:29:14.098Z,8.43
2019-02-07T22:31:43.170Z,9.35
2019-02-07T22:34:12.229Z,9.23
2019-02-07T22:36:41.409Z,7.93
2019-02-07T22:39:10.507Z,8.28
2019-02-07T22:41:39.773Z,9.10
2019-02-07T22:44:08.856Z,10.98
2019-02-07T22:46:38.060Z,10.35
2019-02-07T22:49:07.145Z,9.85
2019-02-07T22:51:36.247Z,8.43
2019-02-07T22:54:05.514Z,8.18
2019-02-07T22:56:34.597Z,11.65
2019-02-07T22:59:03.743Z,10.25
2019-02-07T23:01:42.836Z,11.57
2019-02-07T23:04:11.940Z,8.00
2019-02-07T23:06:41.071Z,7.62
2019-02-07T23:09:11.889Z,8.08
2019-02-07T23:11:41.020Z,8.58
2019-02-07T23:14:10.417Z,10.88
2019-02-07T23:16:39.493Z,10.78
2019-02-07T23:19:08.575Z,11.63
2019-02-07T23:21:37.638Z,10.40
2019-02-07T23:24:06.714Z,9.35
2019-02-07T23:26:35.793Z,11.95
2019-02-07T23:29:04.915Z,8.13
2019-02-07T23:31:37.074Z,9.98
2019-02-07T23:34:06.462Z,8.65
2019-02-07T23:36:35.522Z,7.72
2019-02-07T23:39:07.156Z,10.15
2019-02-07T23:41:36.233Z,8.77
2019-02-07T23:44:06.559Z,12.65
2019-02-07T23:46:35.655Z,8.18
2019-02-07T23:49:04.745Z,10.30
2019-02-07T23:51:33.910Z,8.03
2019-02-07T23:54:03.090Z,10.05
2019-02-07T23:56:32.175Z,9.23
2019-02-07T23:59:01.270Z,8.98
